createdAt,value
2018-11-07T00:01:46.133Z,12.90
2018-11-07T00:04:14.414Z,12.80
2018-11-07T00:06:42.563Z,12.80
2018-11-07T00:09:10.798Z,12.90
2018-11-07T00:11:39.037Z,12.90
2018-11-07T00:14:07.888Z,12.90
2018-11-07T00:16:36.873Z,12.90
2018-11-07T00:19:05.050Z,12.90
2018-11-07T00:21:33.766Z,12.90
2018-11-07T00:24:02.568Z,12.90
2018-11-07T00:26:31.201Z,12.90
2018-11-07T00:28:59.330Z,12.90
2018-11-07T00:31:27.517Z,12.80
2018-11-07T00:33:55.713Z,12.80
2018-11-07T00:36:23.948Z,12.80
2018-11-07T00:38:52.065Z,12.80
2018-11-07T00:41:20.197Z,12.70
2018-11-07T00:43:48.765Z,12.70
2018-11-07T00:46:17.019Z,12.70
2018-11-07T00:48:45.161Z,12.80
2018-11-07T00:51:13.298Z,12.70
2018-11-07T00:53:41.402Z,12.70
2018-11-07T00:56:09.589Z,12.70
2018-11-07T00:58:37.722Z,12.60
2018-11-07T01:01:05.891Z,12.60
2018-11-07T01:03:34.026Z,12.60
2018-11-07T01:06:02.430Z,12.60
2018-11-07T01:08:30.606Z,12.50
2018-11-07T01:10:58.746Z,12.50
2018-11-07T01:13:26.850Z,12.60
2018-11-07T01:15:55.024Z,12.60
2018-11-07T01:18:23.173Z,12.60
2018-11-07T01:20:51.374Z,12.60
2018-11-07T01:23:20.576Z,12.50
2018-11-07T01:25:48.709Z,12.50
2018-11-07T01:28:17.017Z,12.40
2018-11-07T01:30:45.238Z,12.40
2018-11-07T01:33:13.472Z,12.50
2018-11-07T01:35:41.818Z,12.50
2018-11-07T01:38:09.997Z,12.40
2018-11-07T01:40:38.149Z,12.30
2018-11-07T01:43:06.366Z,12.30
2018-11-07T01:45:34.513Z,12.40
2018-11-07T01:48:03.037Z,12.40
2018-11-07T01:50:31.270Z,12.40
2018-11-07T01:53:00.224Z,12.30
2018-11-07T01:55:28.585Z,12.40
2018-11-07T01:57:56.997Z,12.50
2018-11-07T02:00:25.154Z,12.50
2018-11-07T02:02:53.389Z,12.50
2018-11-07T02:05:21.695Z,12.40
2018-11-07T02:07:50.021Z,12.40
2018-11-07T02:10:18.217Z,12.30
2018-11-07T02:12:46.432Z,12.40
2018-11-07T02:15:14.547Z,12.40
2018-11-07T02:17:43.541Z,12.40
2018-11-07T02:20:12.445Z,12.30
2018-11-07T02:22:41.029Z,12.30
2018-11-07T02:25:09.212Z,12.30
2018-11-07T02:27:37.433Z,12.30
2018-11-07T02:30:07.262Z,12.20
2018-11-07T02:32:35.426Z,12.20
2018-11-07T02:35:03.737Z,12.20
2018-11-07T02:37:31.910Z,12.20
2018-11-07T02:40:00.070Z,12.20
2018-11-07T02:42:28.239Z,12.20
2018-11-07T02:44:56.355Z,12.10
2018-11-07T02:47:24.620Z,12.20
2018-11-07T02:49:52.933Z,12.20
2018-11-07T02:52:21.270Z,12.10
2018-11-07T02:54:49.410Z,12.10
2018-11-07T02:57:18.430Z,12.10
2018-11-07T02:59:46.582Z,12.10
2018-11-07T03:02:14.703Z,12.10
2018-11-07T03:04:42.825Z,12.20
2018-11-07T03:07:11.790Z,12.30
2018-11-07T03:09:40.914Z,12.20
2018-11-07T03:12:09.281Z,12.10
2018-11-07T03:14:37.488Z,12.10
2018-11-07T03:17:06.701Z,12.00
2018-11-07T03:19:34.958Z,12.00
2018-11-07T03:22:03.325Z,12.10
2018-11-07T03:24:31.637Z,12.10
2018-11-07T03:27:00.901Z,12.10
2018-11-07T03:29:29.709Z,12.10
2018-11-07T03:31:58.636Z,12.20
2018-11-07T03:34:26.819Z,12.10
2018-11-07T03:36:55.097Z,12.00
2018-11-07T03:39:24.355Z,12.00
2018-11-07T03:41:52.621Z,12.00
2018-11-07T03:44:20.810Z,12.00
2018-11-07T03:46:49.081Z,12.10
2018-11-07T03:49:17.238Z,11.90
2018-11-07T03:51:46.402Z,12.00
2018-11-07T03:54:14.954Z,12.00
2018-11-07T03:56:43.102Z,11.90
2018-11-07T03:59:11.266Z,11.80
2018-11-07T04:01:39.439Z,11.70
2018-11-07T04:04:07.621Z,11.60
2018-11-07T04:06:35.905Z,11.40
2018-11-07T04:09:07.423Z,11.50
2018-11-07T04:11:35.795Z,11.60
2018-11-07T04:14:03.969Z,11.60
2018-11-07T04:16:32.140Z,11.70
2018-11-07T04:19:00.294Z,11.80
2018-11-07T04:21:28.714Z,11.80
2018-11-07T04:24:00.431Z,11.80
2018-11-07T04:26:28.569Z,11.70
2018-11-07T04:28:56.832Z,11.70
2018-11-07T04:31:25.228Z,11.70
2018-11-07T04:33:53.842Z,11.70
2018-11-07T04:36:22.199Z,11.80
2018-11-07T04:38:50.495Z,11.90
2018-11-07T04:41:18.721Z,11.70
2018-11-07T04:43:47.686Z,11.60
2018-11-07T04:46:15.991Z,11.70
2018-11-07T04:48:45.993Z,11.60
2018-11-07T04:51:15.321Z,11.40
2018-11-07T04:53:43.485Z,11.40
2018-11-07T04:56:12.441Z,11.60
2018-11-07T04:58:40.714Z,11.70
2018-11-07T05:01:08.837Z,11.80
2018-11-07T05:03:37.526Z,11.70
2018-11-07T05:06:05.754Z,11.70
2018-11-07T05:08:33.975Z,11.60
2018-11-07T05:11:02.054Z,11.70
2018-11-07T05:13:30.190Z,11.60
2018-11-07T05:15:58.326Z,11.60
2018-11-07T05:18:26.566Z,11.70
2018-11-07T05:20:54.714Z,11.60
2018-11-07T05:23:23.111Z,11.50
2018-11-07T05:25:51.249Z,11.60
2018-11-07T05:28:19.440Z,11.60
2018-11-07T05:30:47.582Z,11.70
2018-11-07T05:33:15.702Z,11.50
2018-11-07T05:35:43.861Z,11.50
2018-11-07T05:38:12.032Z,11.40
2018-11-07T05:40:40.193Z,11.30
2018-11-07T05:43:08.398Z,11.20
2018-11-07T05:45:36.596Z,11.30
2018-11-07T05:48:04.797Z,11.50
2018-11-07T05:50:32.935Z,11.50
2018-11-07T05:53:01.154Z,11.40
2018-11-07T05:55:29.346Z,11.40
2018-11-07T05:57:57.573Z,11.50
2018-11-07T06:00:25.694Z,11.60
2018-11-07T06:02:53.921Z,11.60
2018-11-07T06:05:22.580Z,11.50
2018-11-07T06:07:51.661Z,11.30
2018-11-07T06:10:20.489Z,11.30
2018-11-07T06:12:48.633Z,11.00
2018-11-07T06:15:16.830Z,11.10
2018-11-07T06:17:45.059Z,11.30
2018-11-07T06:20:13.247Z,11.40
2018-11-07T06:22:41.464Z,11.30
2018-11-07T06:25:09.641Z,11.30
2018-11-07T06:27:37.809Z,11.40
2018-11-07T06:30:08.613Z,11.40
2018-11-07T06:32:36.793Z,11.40
2018-11-07T06:35:06.563Z,11.40
2018-11-07T06:37:35.365Z,11.30
2018-11-07T06:40:04.137Z,11.20
2018-11-07T06:42:32.505Z,11.20
2018-11-07T06:45:00.865Z,11.30
2018-11-07T06:47:28.982Z,11.30
2018-11-07T06:49:57.101Z,11.30
2018-11-07T06:52:25.353Z,11.30
2018-11-07T06:54:53.539Z,11.20
2018-11-07T06:57:21.689Z,11.20
2018-11-07T06:59:49.928Z,11.00
2018-11-07T07:02:18.898Z,11.10
2018-11-07T07:04:47.933Z,11.20
2018-11-07T07:07:16.989Z,11.10
2018-11-07T07:09:45.194Z,11.10
2018-11-07T07:12:13.430Z,11.10
2018-11-07T07:14:41.778Z,10.90
2018-11-07T07:17:10.104Z,10.90
2018-11-07T07:19:38.306Z,11.00
2018-11-07T07:22:06.430Z,11.10
2018-11-07T07:24:34.572Z,11.10
2018-11-07T07:27:02.904Z,11.10
2018-11-07T07:29:31.229Z,11.10
2018-11-07T07:32:00.257Z,11.00
2018-11-07T07:34:28.485Z,11.10
2018-11-07T07:36:56.872Z,11.10
2018-11-07T07:39:24.998Z,11.10
2018-11-07T07:41:53.134Z,11.10
2018-11-07T07:44:21.428Z,11.00
2018-11-07T07:46:49.564Z,10.80
2018-11-07T07:49:18.530Z,10.80
2018-11-07T07:51:46.865Z,11.00
2018-11-07T07:54:15.208Z,11.20
2018-11-07T07:56:43.329Z,11.20
2018-11-07T07:59:11.833Z,11.10
2018-11-07T08:01:40.177Z,11.10
2018-11-07T08:04:08.348Z,11.10
2018-11-07T08:06:37.903Z,11.00
2018-11-07T08:09:08.462Z,11.10
2018-11-07T08:11:36.681Z,11.00
2018-11-07T08:14:05.030Z,11.00
2018-11-07T08:16:33.216Z,10.90
2018-11-07T08:19:01.343Z,10.80
2018-11-07T08:21:29.585Z,10.80
2018-11-07T08:23:57.938Z,10.90
2018-11-07T08:26:26.127Z,11.00
2018-11-07T08:28:54.331Z,11.10
2018-11-07T08:31:22.669Z,10.90
2018-11-07T08:33:51.217Z,11.00
2018-11-07T08:36:19.453Z,11.10
2018-11-07T08:38:47.900Z,11.20
2018-11-07T08:41:16.088Z,11.20
2018-11-07T08:43:44.257Z,11.10
2018-11-07T08:46:12.498Z,11.10
2018-11-07T08:48:40.862Z,11.20
2018-11-07T08:51:09.193Z,11.40
2018-11-07T08:53:37.737Z,11.30
2018-11-07T08:56:06.236Z,11.50
2018-11-07T08:58:36.534Z,11.50
2018-11-07T09:01:04.815Z,11.40
2018-11-07T09:03:33.035Z,11.40
2018-11-07T09:06:01.257Z,11.30
2018-11-07T09:08:29.401Z,11.40
2018-11-07T09:10:57.557Z,11.50
2018-11-07T09:13:25.787Z,11.60
2018-11-07T09:15:53.924Z,11.70
2018-11-07T09:18:22.084Z,11.60
2018-11-07T09:20:50.338Z,11.40
2018-11-07T09:23:18.529Z,11.40
2018-11-07T09:25:46.713Z,11.50
2018-11-07T09:28:15.726Z,11.70
2018-11-07T09:30:43.969Z,11.80
2018-11-07T09:33:12.197Z,11.70
2018-11-07T09:35:40.377Z,11.90
2018-11-07T09:38:09.463Z,12.00
2018-11-07T09:40:37.701Z,12.10
2018-11-07T09:43:05.914Z,12.20
2018-11-07T09:45:34.292Z,12.10
2018-11-07T09:48:02.515Z,12.30
2018-11-07T09:50:30.682Z,12.40
2018-11-07T09:52:58.872Z,12.50
2018-11-07T09:55:27.017Z,12.50
2018-11-07T09:57:55.265Z,12.40
2018-11-07T10:00:23.392Z,12.40
2018-11-07T10:02:51.509Z,12.50
2018-11-07T10:05:20.794Z,12.60
2018-11-07T10:07:48.946Z,12.70
2018-11-07T10:10:18.553Z,12.80
2018-11-07T10:12:46.794Z,12.80
2018-11-07T10:15:15.186Z,12.70
2018-11-07T10:17:43.451Z,12.80
2018-11-07T10:20:14.301Z,12.90
2018-11-07T10:22:43.652Z,12.80
2018-11-07T10:25:12.392Z,12.80
2018-11-07T10:27:42.002Z,12.90
2018-11-07T10:30:12.330Z,12.90
2018-11-07T10:32:41.621Z,12.90
2018-11-07T10:35:10.323Z,12.80
2018-11-07T10:37:38.593Z,12.80
2018-11-07T10:40:16.426Z,13.00
2018-11-07T10:42:46.081Z,13.00
2018-11-07T10:45:14.798Z,13.00
2018-11-07T10:47:43.820Z,13.10
2018-11-07T10:50:13.085Z,13.10
2018-11-07T10:52:42.273Z,13.20
2018-11-07T10:55:11.250Z,13.20
2018-11-07T10:57:39.601Z,13.20
2018-11-07T11:00:13.747Z,13.20
2018-11-07T11:02:46.644Z,13.10
2018-11-07T11:05:15.899Z,13.00
2018-11-07T11:07:44.413Z,13.30
2018-11-07T11:10:13.545Z,13.20
2018-11-07T11:12:42.584Z,13.30
2018-11-07T11:15:10.907Z,13.50
2018-11-07T11:17:39.714Z,13.80
2018-11-07T11:20:10.128Z,13.90
2018-11-07T11:22:42.306Z,14.10
2018-11-07T11:25:10.890Z,14.30
2018-11-07T11:27:39.126Z,14.30
2018-11-07T11:30:07.948Z,14.60
2018-11-07T11:32:36.121Z,14.90
2018-11-07T11:35:04.518Z,15.10
2018-11-07T11:37:33.794Z,15.00
2018-11-07T11:40:02.038Z,15.20
2018-11-07T11:42:31.361Z,15.30
2018-11-07T11:45:00.377Z,15.30
2018-11-07T11:47:28.597Z,15.50
2018-11-07T11:49:56.931Z,15.60
2018-11-07T11:52:26.226Z,15.90
2018-11-07T11:54:54.653Z,16.10
2018-11-07T11:57:23.079Z,16.00
2018-11-07T11:59:51.974Z,16.40
2018-11-07T12:02:19.892Z,16.80
2018-11-07T12:04:48.221Z,16.80
2018-11-07T12:07:16.449Z,16.90
2018-11-07T12:09:44.671Z,17.10
2018-11-07T12:12:13.767Z,16.90
2018-11-07T12:14:41.944Z,16.90
2018-11-07T12:17:10.255Z,16.90
2018-11-07T12:19:38.449Z,16.80
2018-11-07T12:22:06.661Z,17.00
2018-11-07T12:24:34.886Z,16.80
2018-11-07T12:27:03.161Z,16.70
2018-11-07T12:29:31.305Z,16.90
2018-11-07T12:32:00.468Z,17.10
2018-11-07T12:34:28.786Z,17.30
2018-11-07T12:36:57.686Z,17.10
2018-11-07T12:39:25.913Z,17.00
2018-11-07T12:41:54.061Z,17.20
2018-11-07T12:44:24.739Z,17.50
2018-11-07T12:46:52.897Z,17.40
2018-11-07T12:49:21.189Z,17.20
2018-11-07T12:51:49.433Z,17.30
2018-11-07T12:54:17.721Z,17.70
2018-11-07T12:56:45.903Z,18.00
2018-11-07T12:59:14.081Z,17.90
2018-11-07T13:01:42.258Z,17.80
2018-11-07T13:04:11.050Z,17.70
2018-11-07T13:06:39.507Z,17.80
2018-11-07T13:09:09.142Z,17.90
2018-11-07T13:11:37.775Z,18.00
2018-11-07T13:14:06.046Z,18.00
2018-11-07T13:16:34.305Z,18.30
2018-11-07T13:19:02.591Z,18.40
2018-11-07T13:21:30.922Z,18.30
2018-11-07T13:24:00.602Z,18.20
2018-11-07T13:26:28.778Z,18.20
2018-11-07T13:28:56.961Z,18.50
2018-11-07T13:31:25.163Z,18.40
2018-11-07T13:33:55.598Z,18.20
2018-11-07T13:36:23.873Z,18.40
2018-11-07T13:38:54.069Z,18.20
2018-11-07T13:41:22.573Z,18.20
2018-11-07T13:43:50.920Z,18.10
2018-11-07T13:46:19.383Z,18.00
2018-11-07T13:48:47.800Z,17.80
2018-11-07T13:51:22.133Z,17.60
2018-11-07T13:53:50.538Z,17.50
2018-11-07T13:56:20.903Z,17.50
2018-11-07T13:58:49.239Z,17.50
2018-11-07T14:01:17.538Z,17.30
2018-11-07T14:03:48.169Z,17.10
2018-11-07T14:06:17.163Z,17.20
2018-11-07T14:08:48.477Z,17.30
2018-11-07T14:11:18.185Z,17.10
2018-11-07T14:13:46.392Z,17.10
2018-11-07T14:16:14.678Z,17.00
2018-11-07T14:18:44.394Z,16.80
2018-11-07T14:21:12.644Z,17.10
2018-11-07T14:23:40.810Z,17.10
2018-11-07T14:26:09.082Z,17.10
2018-11-07T14:28:37.304Z,16.90
2018-11-07T14:31:07.189Z,16.80
2018-11-07T14:33:35.528Z,16.70
2018-11-07T14:36:03.730Z,16.80
2018-11-07T14:38:32.228Z,16.80
2018-11-07T14:41:00.490Z,16.80
2018-11-07T14:43:29.431Z,16.70
2018-11-07T14:45:59.477Z,16.70
2018-11-07T14:48:31.970Z,16.70
2018-11-07T14:51:00.858Z,16.70
2018-11-07T14:53:29.888Z,16.70
2018-11-07T14:55:58.075Z,16.60
2018-11-07T14:58:26.277Z,16.60
2018-11-07T15:00:54.513Z,16.60
2018-11-07T15:03:22.676Z,16.50
2018-11-07T15:05:50.898Z,16.60
2018-11-07T15:08:20.302Z,16.50
2018-11-07T15:10:49.676Z,16.50
2018-11-07T15:13:19.533Z,16.50
2018-11-07T15:15:47.902Z,16.40
2018-11-07T15:18:16.128Z,16.40
2018-11-07T15:20:51.527Z,16.30
2018-11-07T15:23:20.363Z,16.30
2018-11-07T15:25:49.062Z,16.40
2018-11-07T15:28:19.466Z,16.40
2018-11-07T15:30:47.648Z,16.30
2018-11-07T15:33:16.239Z,16.30
2018-11-07T15:35:44.406Z,16.20
2018-11-07T15:38:12.738Z,16.20
2018-11-07T15:40:41.571Z,16.20
2018-11-07T15:43:11.084Z,16.10
2018-11-07T15:45:39.245Z,16.10
2018-11-07T15:48:08.465Z,16.10
2018-11-07T15:50:44.553Z,16.00
2018-11-07T15:53:12.891Z,16.00
2018-11-07T15:55:41.324Z,16.00
2018-11-07T15:58:09.710Z,16.00
2018-11-07T16:00:37.933Z,16.00
2018-11-07T16:03:07.583Z,15.90
2018-11-07T16:05:35.936Z,15.90
2018-11-07T16:08:04.549Z,15.90
2018-11-07T16:10:42.673Z,15.90
2018-11-07T16:13:12.997Z,15.90
2018-11-07T16:15:42.365Z,15.80
2018-11-07T16:18:10.819Z,15.80
2018-11-07T16:20:42.055Z,15.80
2018-11-07T16:23:10.343Z,15.80
2018-11-07T16:25:44.833Z,15.70
2018-11-07T16:28:19.849Z,15.70
2018-11-07T16:30:48.228Z,15.70
2018-11-07T16:33:16.655Z,15.60
2018-11-07T16:35:45.082Z,15.60
2018-11-07T16:38:16.994Z,15.60
2018-11-07T16:40:45.649Z,15.50
2018-11-07T16:43:13.808Z,15.50
2018-11-07T16:45:43.329Z,15.50
2018-11-07T16:48:11.593Z,15.50
2018-11-07T16:50:39.884Z,15.50
2018-11-07T16:53:08.080Z,15.50
2018-11-07T16:55:37.945Z,15.50
2018-11-07T16:58:06.346Z,15.40
2018-11-07T17:00:34.716Z,15.40
2018-11-07T17:03:03.805Z,15.40
2018-11-07T17:05:33.007Z,15.40
2018-11-07T17:08:01.443Z,15.40
2018-11-07T17:10:29.725Z,15.40
2018-11-07T17:12:58.156Z,15.30
2018-11-07T17:15:27.735Z,15.30
2018-11-07T17:17:59.213Z,15.30
2018-11-07T17:20:27.500Z,15.20
2018-11-07T17:22:55.854Z,15.20
2018-11-07T17:25:24.089Z,15.30
2018-11-07T17:27:52.385Z,15.20
2018-11-07T17:30:20.758Z,15.20
2018-11-07T17:32:49.390Z,15.20
2018-11-07T17:35:18.523Z,15.20
2018-11-07T17:37:47.506Z,15.20
2018-11-07T17:40:18.049Z,15.20
2018-11-07T17:42:47.030Z,15.20
2018-11-07T17:45:16.867Z,15.20
2018-11-07T17:47:47.566Z,15.20
2018-11-07T17:50:16.623Z,15.20
2018-11-07T17:52:45.765Z,15.10
2018-11-07T17:55:16.118Z,15.10
2018-11-07T17:57:45.039Z,15.10
2018-11-07T18:00:16.577Z,15.10
2018-11-07T18:02:44.977Z,15.10
2018-11-07T18:05:13.345Z,15.00
2018-11-07T18:07:41.871Z,15.00
2018-11-07T18:10:12.259Z,15.00
2018-11-07T18:12:41.018Z,15.00
2018-11-07T18:15:10.123Z,15.00
2018-11-07T18:17:38.451Z,14.90
2018-11-07T18:20:07.838Z,14.90
2018-11-07T18:22:36.037Z,14.90
2018-11-07T18:25:04.442Z,14.90
2018-11-07T18:27:33.188Z,14.80
2018-11-07T18:30:01.406Z,14.90
2018-11-07T18:32:29.776Z,14.90
2018-11-07T18:34:58.102Z,14.90
2018-11-07T18:37:26.217Z,14.90
2018-11-07T18:39:55.017Z,14.80
2018-11-07T18:42:24.433Z,14.90
2018-11-07T18:44:52.703Z,14.90
2018-11-07T18:47:20.920Z,14.80
2018-11-07T18:49:49.698Z,14.80
2018-11-07T18:52:17.901Z,14.80
2018-11-07T18:54:46.118Z,14.70
2018-11-07T18:57:20.271Z,14.70
2018-11-07T18:59:49.729Z,14.70
2018-11-07T19:02:22.231Z,14.70
2018-11-07T19:04:55.616Z,14.60
2018-11-07T19:07:26.010Z,14.60
2018-11-07T19:10:02.935Z,14.50
2018-11-07T19:12:31.169Z,14.50
2018-11-07T19:14:59.361Z,14.50
2018-11-07T19:17:27.577Z,14.50
2018-11-07T19:19:57.245Z,14.50
2018-11-07T19:22:25.522Z,14.50
2018-11-07T19:24:53.912Z,14.40
2018-11-07T19:27:22.183Z,14.40
2018-11-07T19:29:50.355Z,14.40
2018-11-07T19:32:18.654Z,14.30
2018-11-07T19:34:47.054Z,14.40
2018-11-07T19:37:15.407Z,14.40
2018-11-07T19:39:44.005Z,14.40
2018-11-07T19:42:12.205Z,14.30
2018-11-07T19:44:40.771Z,14.30
2018-11-07T19:47:08.954Z,14.40
2018-11-07T19:49:37.269Z,14.30
2018-11-07T19:52:05.612Z,14.40
2018-11-07T19:54:34.102Z,14.40
2018-11-07T19:57:03.503Z,14.40
2018-11-07T19:59:32.327Z,14.40
2018-11-07T20:02:00.769Z,14.40
2018-11-07T20:04:32.290Z,14.40
2018-11-07T20:07:01.134Z,14.40
2018-11-07T20:09:31.665Z,14.40
2018-11-07T20:12:01.965Z,14.40
2018-11-07T20:14:31.499Z,14.30
2018-11-07T20:16:59.938Z,14.30
2018-11-07T20:19:29.264Z,14.30
2018-11-07T20:22:00.730Z,14.30
2018-11-07T20:24:33.211Z,14.20
2018-11-07T20:27:07.487Z,14.20
2018-11-07T20:29:38.118Z,14.30
2018-11-07T20:32:13.422Z,14.20
2018-11-07T20:34:41.697Z,14.20
2018-11-07T20:37:10.801Z,14.10
2018-11-07T20:39:39.874Z,14.20
2018-11-07T20:42:08.212Z,14.10
2018-11-07T20:44:36.670Z,14.10
2018-11-07T20:47:04.971Z,14.10
2018-11-07T20:49:33.474Z,14.00
2018-11-07T20:52:01.705Z,14.00
2018-11-07T20:54:30.332Z,14.00
2018-11-07T20:56:58.475Z,14.10
2018-11-07T20:59:27.144Z,14.10
2018-11-07T21:01:56.686Z,14.10
2018-11-07T21:04:25.017Z,14.10
2018-11-07T21:06:53.443Z,14.10
2018-11-07T21:09:21.838Z,14.10
2018-11-07T21:11:50.169Z,14.20
2018-11-07T21:14:18.638Z,14.20
2018-11-07T21:16:47.093Z,14.20
2018-11-07T21:19:15.407Z,14.20
2018-11-07T21:21:44.613Z,14.20
2018-11-07T21:24:13.066Z,14.20
2018-11-07T21:26:41.446Z,14.20
2018-11-07T21:29:12.709Z,14.30
2018-11-07T21:31:41.066Z,14.20
2018-11-07T21:34:09.445Z,14.20
2018-11-07T21:36:37.961Z,14.20
2018-11-07T21:39:09.451Z,14.20
2018-11-07T21:41:37.811Z,14.20
2018-11-07T21:44:06.452Z,14.20
2018-11-07T21:46:35.621Z,14.20
2018-11-07T21:49:03.745Z,14.20
2018-11-07T21:51:32.454Z,14.10
2018-11-07T21:54:00.749Z,14.10
2018-11-07T21:56:29.198Z,14.20
2018-11-07T21:58:57.577Z,14.10
2018-11-07T22:01:25.858Z,14.10
2018-11-07T22:03:54.628Z,14.00
2018-11-07T22:06:22.804Z,14.00
2018-11-07T22:08:51.033Z,14.00
2018-11-07T22:11:19.453Z,14.00
2018-11-07T22:13:47.589Z,14.00
2018-11-07T22:16:15.876Z,14.00
2018-11-07T22:18:44.258Z,14.00
2018-11-07T22:21:12.381Z,14.00
2018-11-07T22:23:40.530Z,14.10
2018-11-07T22:26:08.697Z,13.90
2018-11-07T22:28:36.835Z,13.90
2018-11-07T22:31:05.361Z,13.90
2018-11-07T22:33:33.531Z,13.90
2018-11-07T22:36:01.717Z,13.90
2018-11-07T22:38:29.959Z,13.80
2018-11-07T22:40:58.114Z,13.80
2018-11-07T22:43:26.258Z,13.80
2018-11-07T22:45:55.337Z,13.70
2018-11-07T22:48:23.479Z,13.70
2018-11-07T22:50:51.630Z,13.70
2018-11-07T22:53:20.272Z,13.60
2018-11-07T22:55:49.678Z,13.50
2018-11-07T22:58:17.842Z,13.50
2018-11-07T23:00:51.442Z,13.60
2018-11-07T23:03:19.722Z,13.50
2018-11-07T23:05:47.894Z,13.50
2018-11-07T23:08:16.273Z,13.40
2018-11-07T23:10:45.390Z,13.30
2018-11-07T23:13:13.642Z,13.40
2018-11-07T23:15:47.875Z,13.50
2018-11-07T23:18:18.242Z,13.50
2018-11-07T23:20:46.734Z,13.50
2018-11-07T23:23:15.218Z,13.40
2018-11-07T23:25:44.605Z,13.40
2018-11-07T23:28:13.447Z,13.40
2018-11-07T23:30:42.657Z,13.40
2018-11-07T23:35:45.541Z,13.30
2018-11-07T23:38:13.714Z,13.30
2018-11-07T23:40:41.994Z,13.30
2018-11-07T23:43:10.892Z,13.30
2018-11-07T23:45:39.049Z,13.40
2018-11-07T23:48:07.741Z,13.30
2018-11-07T23:50:36.706Z,13.20
2018-11-07T23:53:05.722Z,13.30
2018-11-07T23:55:33.869Z,13.30
2018-11-07T23:58:01.969Z,13.20
